Time;durP1;ratioP1;P1;durP2;ratioP2;P2;SDS_P1;SDS_P2;PMS_P1;PMS_P2;Temp;Humidity;BMP_temperature;BMP_pressure;BME280_temperature;BME280_humidity;BME280_pressure;Samples;Min_cycle;Max_cycle;Signal;HPM_P1;HPM_P2
2023/05/21 00:01:04;;;;;;;;;;;;;;;18.37;57.01;96428.16;4233141;28;5912;-73
2023/05/21 00:03:12;;;;;;;;;;;;;;;18.37;56.97;96420.94;4234519;28;5651;-75
2023/05/21 00:05:17;;;;;;;;;;;;;;;18.37;57.22;96415.59;4235006;28;5725;-73
2023/05/21 00:07:22;;;;;;;;;;;;;;;18.36;57.04;96411.28;4222109;28;5931;-74
2023/05/21 00:09:24;;;;;;;;;;;;;;;18.35;57.07;96412.34;4229650;28;5629;-74
2023/05/21 00:11:27;;;;;;;;;;;;;;;18.36;57.08;96408.63;4217830;28;5661;-75
2023/05/21 00:13:30;;;;;;;;;;;;;;;18.37;57.04;96412.91;4225855;28;5702;-76
2023/05/21 00:15:33;;;;;;;;;;;;;;;18.36;57.14;96400.59;4220436;28;5876;-76
2023/05/21 00:17:36;;;;;;;;;;;;;;;18.39;57.13;96409.97;4231861;27;5919;-76
2023/05/21 00:19:39;;;;;;;;;;;;;;;18.39;56.94;96413.47;4234675;28;5743;-73
2023/05/21 00:21:44;;;;;;;;;;;;;;;18.39;57.13;96409.97;4234585;28;5663;-74
2023/05/21 00:23:49;;;;;;;;;;;;;;;18.38;57.09;96419.88;4234491;28;5643;-75
2023/05/21 00:25:52;;;;;;;;;;;;;;;18.34;57.11;96408.84;4234574;28;5601;-74
2023/05/21 00:27:55;;;;;;;;;;;;;;;18.30;57.10;96405.06;4226180;28;6369;-74
2023/05/21 00:29:58;;;;;;;;;;;;;;;18.29;57.24;96405.31;4234365;28;5753;-76
2023/05/21 00:32:01;;;;;;;;;;;;;;;18.28;57.14;96409.88;4234304;28;5644;-75
2023/05/21 00:34:04;;;;;;;;;;;;;;;18.27;57.22;96404.75;4231978;28;5683;-75
2023/05/21 00:36:07;;;;;;;;;;;;;;;18.23;57.20;96401.78;4234702;28;5644;-73
2023/05/21 00:38:10;;;;;;;;;;;;;;;18.20;57.14;96401.47;4234611;28;5643;-75
2023/05/21 00:40:15;;;;;;;;;;;;;;;18.20;57.11;96401.47;4234121;28;5660;-75
2023/05/21 00:42:18;;;;;;;;;;;;;;;18.21;57.17;96397.72;4234602;28;5754;-73
2023/05/21 00:44:21;;;;;;;;;;;;;;;18.20;57.32;96391.56;4234518;28;5659;-73
2023/05/21 00:46:23;;;;;;;;;;;;;;;18.19;57.25;96394.50;4234480;28;5768;-72
2023/05/21 00:48:27;;;;;;;;;;;;;;;18.18;57.25;96390.22;4234332;28;6353;-72
2023/05/21 00:50:31;;;;;;;;;;;;;;;18.17;57.37;96393.94;4231340;28;5092;-73
2023/05/21 00:52:40;;;;;;;;;;;;;;;18.15;57.38;96388.03;4234354;28;5923;-73
2023/05/21 00:54:43;;;;;;;;;;;;;;;18.13;57.34;96390.16;4234182;28;5643;-75
2023/05/21 00:56:48;;;;;;;;;;;;;;;18.11;57.50;96394.94;4234082;28;5647;-75
2023/05/21 00:58:51;;;;;;;;;;;;;;;18.08;57.44;96396.25;4234299;28;5640;-76
2023/05/21 01:00:55;;;;;;;;;;;;;;;18.06;57.57;96392.22;4234216;28;5787;-75
2023/05/21 01:02:58;;;;;;;;;;;;;;;18.02;57.44;96395.41;4233867;28;5636;-74
2023/05/21 01:05:03;;;;;;;;;;;;;;;18.01;57.60;96392.97;4229695;28;5636;-76
2023/05/21 01:07:08;;;;;;;;;;;;;;;17.99;57.67;96393.19;4234519;28;5729;-76
2023/05/21 01:09:11;;;;;;;;;;;;;;;17.99;57.58;96389.72;4220533;28;5689;-76
2023/05/21 01:11:14;;;;;;;;;;;;;;;17.99;57.72;96385.19;4229146;28;5648;-77
2023/05/21 01:13:21;;;;;;;;;;;;;;;17.97;57.61;96386.50;4237365;28;5647;-75
2023/05/21 01:15:24;;;;;;;;;;;;;;;17.89;57.85;96384.25;4237427;28;5722;-75
2023/05/21 01:17:30;;;;;;;;;;;;;;;17.85;58.01;96383.94;4237515;28;5651;-76
2023/05/21 01:19:34;;;;;;;;;;;;;;;17.88;57.90;96387.97;4237707;28;5782;-75
2023/05/21 01:21:42;;;;;;;;;;;;;;;17.89;57.96;96394.94;4237652;28;5640;-74
2023/05/21 01:23:46;;;;;;;;;;;;;;;17.90;57.87;96392.03;4233108;28;5768;-73
2023/05/21 01:25:49;;;;;;;;;;;;;;;17.89;57.81;96385.06;4236306;28;5775;-76
2023/05/21 01:27:52;;;;;;;;;;;;;;;17.89;58.09;96392.28;4237405;28;5660;-73
2023/05/21 01:29:56;;;;;;;;;;;;;;;17.89;57.98;96394.94;4237069;28;5777;-73
2023/05/21 01:32:08;;;;;;;;;;;;;;;17.88;57.94;96396.81;4221074;28;6314;-73
2023/05/21 01:34:15;;;;;;;;;;;;;;;17.89;58.04;96401.09;4236829;28;5794;-76
2023/05/21 01:36:25;;;;;;;;;;;;;;;17.88;57.94;96404.03;4220351;28;5621;-75
2023/05/21 01:38:33;;;;;;;;;;;;;;;17.87;58.07;96403.22;4222030;28;5674;-74
2023/05/21 01:40:44;;;;;;;;;;;;;;;17.87;58.45;96405.09;4237111;28;5742;-74
2023/05/21 01:42:48;;;;;;;;;;;;;;;17.86;58.26;96403.47;4234012;28;5642;-71
2023/05/21 01:44:54;;;;;;;;;;;;;;;17.86;58.27;96403.47;4237174;28;5676;-73
2023/05/21 01:46:59;;;;;;;;;;;;;;;17.85;58.28;96404.53;4237398;28;5751;-72
2023/05/21 01:49:02;;;;;;;;;;;;;;;17.83;58.16;96403.97;4237337;28;5643;-75
2023/05/21 01:51:06;;;;;;;;;;;;;;;17.82;58.28;96408.50;4236937;28;5759;-73
2023/05/21 01:53:09;;;;;;;;;;;;;;;17.80;58.29;96397.25;4236965;28;5765;-73
2023/05/21 01:55:12;;;;;;;;;;;;;;;17.78;58.37;96399.38;4236546;28;5674;-74
2023/05/21 01:57:17;;;;;;;;;;;;;;;17.78;58.42;96393.19;4236883;28;6583;-74
2023/05/21 01:59:20;;;;;;;;;;;;;;;17.77;58.41;96400.41;4236306;28;5844;-73
2023/05/21 02:01:23;;;;;;;;;;;;;;;17.77;58.46;96397.72;4227105;28;5849;-73
2023/05/21 02:03:26;;;;;;;;;;;;;;;17.78;58.59;96398.53;4231228;28;5647;-76
2023/05/21 02:05:30;;;;;;;;;;;;;;;17.79;58.67;96401.00;4236690;28;5643;-74
2023/05/21 02:07:32;;;;;;;;;;;;;;;17.79;58.29;96395.66;4236459;28;6298;-73
2023/05/21 02:09:35;;;;;;;;;;;;;;;17.79;58.57;96403.66;4236577;28;5697;-77
2023/05/21 02:11:38;;;;;;;;;;;;;;;17.77;58.53;96403.09;4236436;28;5654;-76
2023/05/21 02:13:44;;;;;;;;;;;;;;;17.79;58.59;96398.31;4236632;28;5701;-76
2023/05/21 02:15:47;;;;;;;;;;;;;;;17.80;58.60;96399.94;4228666;28;5621;-76
2023/05/21 02:17:51;;;;;;;;;;;;;;;17.80;58.73;96399.94;4231841;28;5723;-75
2023/05/21 02:19:54;;;;;;;;;;;;;;;17.82;58.78;96408.50;4236603;28;5655;-75
2023/05/21 02:21:57;;;;;;;;;;;;;;;17.79;58.73;96406.34;4228053;28;5621;-74
2023/05/21 02:24:00;;;;;;;;;;;;;;;17.77;58.78;96404.94;4226771;28;5752;-73
2023/05/21 02:26:03;;;;;;;;;;;;;;;17.77;58.89;96403.09;4236486;28;6231;-75
2023/05/21 02:28:06;;;;;;;;;;;;;;;17.75;58.77;96399.84;4235233;28;5610;-76
2023/05/21 02:30:12;;;;;;;;;;;;;;;17.75;58.83;96389.16;4225184;28;6643;-75
2023/05/21 02:32:15;;;;;;;;;;;;;;;17.73;58.82;96405.44;4224819;28;5739;-75
2023/05/21 02:34:19;;;;;;;;;;;;;;;17.70;58.84;96399.81;4236054;28;5659;-76
2023/05/21 02:36:24;;;;;;;;;;;;;;;17.68;58.93;96407.22;4236246;28;5626;-74
2023/05/21 02:38:26;;;;;;;;;;;;;;;17.68;59.09;96394.69;4236295;28;5710;-74
2023/05/21 02:40:29;;;;;;;;;;;;;;;17.68;58.98;96396.53;4236095;28;5632;-75
2023/05/21 02:42:33;;;;;;;;;;;;;;;17.67;58.95;96392.25;4236225;28;5648;-75
2023/05/21 02:44:36;;;;;;;;;;;;;;;17.66;59.17;96394.09;4236189;28;5651;-73
2023/05/21 02:46:40;;;;;;;;;;;;;;;17.66;59.01;96390.63;4236082;28;5656;-75
2023/05/21 02:48:43;;;;;;;;;;;;;;;17.65;59.03;96391.66;4235545;28;5787;-75
2023/05/21 02:50:46;;;;;;;;;;;;;;;17.64;59.07;96390.06;4220043;28;5624;-72
2023/05/21 02:52:49;;;;;;;;;;;;;;;17.63;58.99;96391.91;4232343;28;5814;-73
2023/05/21 02:54:52;;;;;;;;;;;;;;;17.65;59.19;96392.47;4235991;27;5807;-73
2023/05/21 02:56:55;;;;;;;;;;;;;;;17.66;59.04;96391.41;4236136;28;6399;-75
2023/05/21 02:58:58;;;;;;;;;;;;;;;17.66;59.15;96390.63;4235864;28;5915;-75
2023/05/21 03:01:01;;;;;;;;;;;;;;;17.66;59.23;96390.63;4235804;28;5856;-73
2023/05/21 03:03:05;;;;;;;;;;;;;;;17.66;59.21;96398.63;4235735;28;5762;-73
2023/05/21 03:05:09;;;;;;;;;;;;;;;17.67;59.22;96398.41;4235670;28;5742;-75
2023/05/21 03:07:12;;;;;;;;;;;;;;;17.67;59.37;96392.25;4232802;28;5656;-74
2023/05/21 03:09:15;;;;;;;;;;;;;;;17.66;59.13;96382.59;4227322;28;5651;-75
2023/05/21 03:11:19;;;;;;;;;;;;;;;17.65;59.28;96389.81;4235898;28;5652;-73
2023/05/21 03:13:22;;;;;;;;;;;;;;;17.66;59.28;96385.25;4235678;28;5644;-75
2023/05/21 03:15:25;;;;;;;;;;;;;;;17.65;59.30;96380.97;4235831;28;5687;-76
2023/05/21 03:17:27;;;;;;;;;;;;;;;17.63;59.25;96386.56;4235744;28;5710;-75
2023/05/21 03:19:33;;;;;;;;;;;;;;;17.61;59.34;96386.03;4235462;27;6822;-74
2023/05/21 03:21:36;;;;;;;;;;;;;;;17.59;59.29;96384.66;4235389;28;7668;-75
2023/05/21 03:23:40;;;;;;;;;;;;;;;17.57;59.38;96376.88;4234193;28;5775;-75
2023/05/21 03:25:44;;;;;;;;;;;;;;;17.55;59.44;96383.50;4235562;28;6372;-74
2023/05/21 03:27:47;;;;;;;;;;;;;;;17.54;59.41;96380.03;4235336;28;5663;-73
2023/05/21 03:29:50;;;;;;;;;;;;;;;17.54;59.53;96384.56;4235607;28;5610;-75
2023/05/21 03:31:54;;;;;;;;;;;;;;;17.52;59.38;96384.00;4223814;28;5732;-73
2023/05/21 03:33:57;;;;;;;;;;;;;;;17.51;59.62;96390.41;4218683;28;5732;-73
2023/05/21 03:36:01;;;;;;;;;;;;;;;17.49;59.60;96384.50;4222556;28;5642;-74
2023/05/21 03:38:04;;;;;;;;;;;;;;;17.49;59.61;96388.00;4235067;28;5746;-74
2023/05/21 03:40:08;;;;;;;;;;;;;;;17.51;59.60;96391.22;4220949;28;6551;-76
2023/05/21 03:42:12;;;;;;;;;;;;;;;17.53;59.42;96385.63;4232175;28;5653;-73
2023/05/21 03:44:15;;;;;;;;;;;;;;;17.52;59.72;96390.16;4226823;28;5671;-76
2023/05/21 03:46:18;;;;;;;;;;;;;;;17.52;59.64;96386.69;4235229;28;5826;-75
2023/05/21 03:48:21;;;;;;;;;;;;;;;17.52;59.62;96389.34;4234969;28;5652;-73
2023/05/21 03:50:24;;;;;;;;;;;;;;;17.51;59.72;96388.56;4235289;28;5689;-73
2023/05/21 03:52:29;;;;;;;;;;;;;;;17.49;59.75;96395.19;4235018;28;5689;-76
2023/05/21 03:54:31;;;;;;;;;;;;;;;17.49;59.66;96408.56;4234800;28;5836;-77
2023/05/21 03:56:34;;;;;;;;;;;;;;;17.46;59.73;96402.66;4234879;28;6523;-76
2023/05/21 03:58:37;;;;;;;;;;;;;;;17.45;59.67;96413.59;4223395;28;5854;-73
2023/05/21 04:00:41;;;;;;;;;;;;;;;17.43;59.88;96403.13;4234978;28;5684;-74
2023/05/21 04:02:45;;;;;;;;;;;;;;;17.42;59.85;96409.53;4234717;28;5707;-73
2023/05/21 04:04:50;;;;;;;;;;;;;;;17.42;59.82;96395.38;4234973;28;5655;-73
2023/05/21 04:06:54;;;;;;;;;;;;;;;17.42;59.87;96412.19;4234638;28;5717;-75
2023/05/21 04:08:58;;;;;;;;;;;;;;;17.42;59.90;96417.56;4234755;28;5652;-76
2023/05/21 04:11:01;;;;;;;;;;;;;;;17.43;60.00;96421.03;4234625;28;6482;-72
2023/05/21 04:13:04;;;;;;;;;;;;;;;17.42;59.82;96424.75;4234339;28;5722;-73
2023/05/21 04:15:08;;;;;;;;;;;;;;;17.41;59.80;96418.59;4224404;28;5771;-74
2023/05/21 04:17:12;;;;;;;;;;;;;;;17.42;59.96;96422.09;4234191;28;5647;-76
2023/05/21 04:19:15;;;;;;;;;;;;;;;17.43;59.93;96427.19;4233919;28;5646;-72
2023/05/21 04:21:18;;;;;;;;;;;;;;;17.41;59.89;96421.28;4234546;28;5688;-73
2023/05/21 04:23:22;;;;;;;;;;;;;;;17.41;60.13;96421.28;4234445;28;5716;-76
2023/05/21 04:25:26;;;;;;;;;;;;;;;17.40;60.02;96425.00;4233304;28;5687;-75
2023/05/21 04:27:29;;;;;;;;;;;;;;;17.43;60.27;96431.72;4234018;28;5651;-73
2023/05/21 04:29:32;;;;;;;;;;;;;;;17.44;60.02;96430.66;4234441;28;5775;-74
2023/05/21 04:31:35;;;;;;;;;;;;;;;17.46;59.93;96433.91;4231073;28;5644;-75
2023/05/21 04:33:40;;;;;;;;;;;;;;;17.46;59.96;96429.38;4234605;28;5594;-75
2023/05/21 04:35:45;;;;;;;;;;;;;;;17.48;60.06;96431.00;4222032;28;5732;-73
2023/05/21 04:37:47;;;;;;;;;;;;;;;17.50;60.13;96434.22;4226571;28;5652;-74
2023/05/21 04:39:50;;;;;;;;;;;;;;;17.50;60.01;96440.38;4229477;28;5284;-76
2023/05/21 04:41:55;;;;;;;;;;;;;;;17.51;60.12;96439.31;4232751;28;5614;-75
2023/05/21 04:43:58;;;;;;;;;;;;;;;17.51;60.04;96446.53;4234409;28;5639;-75
2023/05/21 04:46:01;;;;;;;;;;;;;;;17.54;60.24;96446.03;4233998;28;5730;-76
2023/05/21 04:48:03;;;;;;;;;;;;;;;17.54;60.08;96451.38;4224280;28;5795;-76
2023/05/21 04:50:09;;;;;;;;;;;;;;;17.56;60.12;96449.31;4217408;28;5637;-77
2023/05/21 04:52:12;;;;;;;;;;;;;;;17.57;59.90;96453.59;4225524;28;5098;-77
2023/05/21 04:54:15;;;;;;;;;;;;;;;17.61;60.08;96457.38;4225399;28;5632;-73
2023/05/21 04:56:18;;;;;;;;;;;;;;;17.60;60.22;96458.44;4234191;28;5071;-76
2023/05/21 04:58:22;;;;;;;;;;;;;;;17.61;60.21;96460.06;4233986;28;5661;-74
2023/05/21 05:00:25;;;;;;;;;;;;;;;17.64;60.35;96459.56;4232751;28;5609;-76
2023/05/21 05:02:28;;;;;;;;;;;;;;;17.65;60.21;96461.97;4227292;28;5698;-77
2023/05/21 05:04:31;;;;;;;;;;;;;;;17.67;60.15;96453.75;4227518;28;5625;-76
2023/05/21 05:06:34;;;;;;;;;;;;;;;17.69;60.11;96460.47;4230898;28;5788;-75
2023/05/21 05:08:37;;;;;;;;;;;;;;;17.72;60.21;96461.84;4233921;28;5758;-75
2023/05/21 05:10:39;;;;;;;;;;;;;;;17.74;60.29;96467.75;4233948;28;5655;-77
2023/05/21 05:12:42;;;;;;;;;;;;;;;17.74;60.21;96467.75;4233547;28;5937;-73
2023/05/21 05:14:47;;;;;;;;;;;;;;;17.75;60.14;96464.03;4233794;28;5702;-73
2023/05/21 05:16:49;;;;;;;;;;;;;;;17.73;60.34;96463.47;4232867;28;5791;-73
2023/05/21 05:18:52;;;;;;;;;;;;;;;17.72;60.17;96462.66;4233585;28;5730;-76
2023/05/21 05:20:56;;;;;;;;;;;;;;;17.74;60.54;96465.06;4232583;28;5709;-76
2023/05/21 05:22:59;;;;;;;;;;;;;;;17.72;60.31;96469.88;4215056;28;5741;-74
2023/05/21 05:25:02;;;;;;;;;;;;;;;17.72;60.26;96476.03;4210138;28;5601;-73
2023/05/21 05:27:05;;;;;;;;;;;;;;;17.74;60.26;96473.09;4210306;28;5975;-74
2023/05/21 05:29:08;;;;;;;;;;;;;;;17.77;60.29;96471.78;4218294;28;5649;-75
2023/05/21 05:31:12;;;;;;;;;;;;;;;17.79;60.15;96475.84;4216753;28;5703;-75
2023/05/21 05:33:15;;;;;;;;;;;;;;;17.83;60.18;96470.81;4219074;28;5872;-74
2023/05/21 05:35:18;;;;;;;;;;;;;;;17.84;60.28;96467.91;4219409;28;6364;-74
2023/05/21 05:37:21;;;;;;;;;;;;;;;17.85;60.15;96466.84;4209739;28;5756;-74
2023/05/21 05:39:24;;;;;;;;;;;;;;;17.87;60.05;96482.63;4215807;28;5751;-76
2023/05/21 05:41:27;;;;;;;;;;;;;;;17.84;60.14;96467.91;4212956;28;5838;-77
2023/05/21 05:43:30;;;;;;;;;;;;;;;17.87;60.26;96479.94;4209971;28;5799;-75
2023/05/21 05:45:32;;;;;;;;;;;;;;;17.87;60.17;96464.72;4213946;28;5744;-73
2023/05/21 05:47:37;;;;;;;;;;;;;;;17.89;60.13;96470.63;4225409;28;5727;-74
2023/05/21 05:49:42;;;;;;;;;;;;;;;17.91;60.05;96465.88;4223374;28;6842;-75
2023/05/21 05:51:45;;;;;;;;;;;;;;;17.93;60.16;96469.09;4234784;28;5660;-74
2023/05/21 05:53:48;;;;;;;;;;;;;;;17.93;60.08;96462.94;4227699;28;5593;-74
2023/05/21 05:55:51;;;;;;;;;;;;;;;17.93;60.03;96468.28;4228148;28;5645;-75
2023/05/21 05:57:53;;;;;;;;;;;;;;;17.91;60.12;96471.22;4233402;28;5842;-74
2023/05/21 05:59:57;;;;;;;;;;;;;;;17.93;60.10;96465.59;4225606;27;5643;-76
2023/05/21 06:02:00;;;;;;;;;;;;;;;17.95;59.99;96466.16;4217098;28;5747;-73
2023/05/21 06:04:05;;;;;;;;;;;;;;;17.99;59.99;96472.63;4218436;27;5716;-76
2023/05/21 06:06:08;;;;;;;;;;;;;;;18.01;60.22;96474.03;4225815;28;5590;-71
2023/05/21 06:08:10;;;;;;;;;;;;;;;18.03;60.13;96479.13;4223587;28;5598;-75
2023/05/21 06:10:13;;;;;;;;;;;;;;;18.06;59.96;96470.59;4228052;28;5756;-73
2023/05/21 06:12:16;;;;;;;;;;;;;;;18.06;59.82;96469.78;4218331;28;5830;-73
2023/05/21 06:14:19;;;;;;;;;;;;;;;18.07;60.09;96471.41;4223360;28;5743;-76
2023/05/21 06:16:22;;;;;;;;;;;;;;;18.09;59.79;96471.94;4217366;27;5769;-74
2023/05/21 06:18:25;;;;;;;;;;;;;;;18.14;59.93;96472.03;4221437;28;5613;-71
2023/05/21 06:20:29;;;;;;;;;;;;;;;18.14;59.99;96480.06;4224990;28;5605;-72
2023/05/21 06:22:32;;;;;;;;;;;;;;;18.15;60.06;96473.66;4224678;28;5169;-73
2023/05/21 06:24:36;;;;;;;;;;;;;;;18.17;59.89;96476.88;4223901;28;5635;-74
2023/05/21 06:26:39;;;;;;;;;;;;;;;18.21;59.99;96481.47;4226700;28;5609;-74
2023/05/21 06:28:41;;;;;;;;;;;;;;;18.23;60.00;96475.88;4233305;28;5718;-73
2023/05/21 06:30:44;;;;;;;;;;;;;;;18.23;59.79;96474.03;4219997;28;5624;-77
2023/05/21 06:32:47;;;;;;;;;;;;;;;18.24;59.68;96478.31;4219203;28;5741;-76
2023/05/21 06:34:50;;;;;;;;;;;;;;;18.24;59.67;96480.19;4219474;28;5617;-75
2023/05/21 06:36:55;;;;;;;;;;;;;;;18.23;59.94;96483.91;4219318;28;5636;-75
2023/05/21 06:38:58;;;;;;;;;;;;;;;18.22;59.93;96477.75;4219040;28;5617;-73
2023/05/21 06:41:02;;;;;;;;;;;;;;;18.21;59.85;96476.13;4219466;28;5716;-76
2023/05/21 06:43:05;;;;;;;;;;;;;;;18.23;59.86;96482.06;4219437;28;5620;-76
2023/05/21 06:45:09;;;;;;;;;;;;;;;18.23;59.76;96476.72;4235102;28;5648;-75
2023/05/21 06:47:12;;;;;;;;;;;;;;;18.23;59.93;96470.53;4236127;28;5691;-77
2023/05/21 06:49:15;;;;;;;;;;;;;;;18.26;59.99;96478.06;4235917;28;5643;-78
2023/05/21 06:51:18;;;;;;;;;;;;;;;18.28;59.89;96475.94;4235903;28;5111;-76
2023/05/21 06:53:22;;;;;;;;;;;;;;;18.28;59.89;96473.28;4236118;28;5760;-75
2023/05/21 06:55:25;;;;;;;;;;;;;;;18.29;59.69;96475.69;4235711;28;5640;-75
2023/05/21 06:57:28;;;;;;;;;;;;;;;18.29;59.79;96470.34;4235882;28;5663;-77
2023/05/21 06:59:30;;;;;;;;;;;;;;;18.31;59.72;96475.44;4235777;28;5663;-76
2023/05/21 07:01:34;;;;;;;;;;;;;;;18.34;59.71;96477.59;4235796;28;5897;-74
2023/05/21 07:03:37;;;;;;;;;;;;;;;18.35;59.73;96471.22;4235029;28;5731;-74
2023/05/21 07:05:40;;;;;;;;;;;;;;;18.39;59.57;96479.56;4235916;28;5655;-75
2023/05/21 07:07:45;;;;;;;;;;;;;;;18.39;59.62;96474.19;4235554;28;5644;-75
2023/05/21 07:09:49;;;;;;;;;;;;;;;18.41;59.46;96470.22;4235408;28;5644;-75
2023/05/21 07:11:52;;;;;;;;;;;;;;;18.42;59.57;96473.69;4235480;28;5770;-76
2023/05/21 07:13:56;;;;;;;;;;;;;;;18.45;59.42;96474.00;4235665;28;5647;-76
2023/05/21 07:15:59;;;;;;;;;;;;;;;18.48;59.34;96468.16;4235684;28;5874;-75
2023/05/21 07:18:02;;;;;;;;;;;;;;;18.51;59.40;96466.84;4235760;27;5711;-71
2023/05/21 07:20:06;;;;;;;;;;;;;;;18.54;59.27;96461.78;4235377;28;5657;-75
2023/05/21 07:22:11;;;;;;;;;;;;;;;18.57;59.52;96461.31;4235565;28;5652;-75
2023/05/21 07:24:14;;;;;;;;;;;;;;;18.59;59.33;96469.88;4235175;28;5659;-74
2023/05/21 07:26:18;;;;;;;;;;;;;;;18.61;59.22;96467.75;4227406;28;5648;-73
2023/05/21 07:28:21;;;;;;;;;;;;;;;18.62;59.34;96469.38;4235570;28;6358;-76
2023/05/21 07:30:24;;;;;;;;;;;;;;;18.66;59.17;96474.25;4235303;28;5649;-75
2023/05/21 07:32:27;;;;;;;;;;;;;;;18.66;59.29;96467.03;4235155;28;5768;-72
2023/05/21 07:34:31;;;;;;;;;;;;;;;18.66;59.22;96468.91;4235356;27;5659;-74
2023/05/21 07:36:34;;;;;;;;;;;;;;;18.70;59.29;96470.84;4235122;28;5647;-74
2023/05/21 07:38:38;;;;;;;;;;;;;;;18.70;59.13;96470.03;4235311;28;5647;-76
2023/05/21 07:40:41;;;;;;;;;;;;;;;18.73;59.31;96464.97;4234904;28;5805;-72
2023/05/21 07:42:45;;;;;;;;;;;;;;;18.77;58.88;96468.75;4235162;28;5648;-75
2023/05/21 07:44:48;;;;;;;;;;;;;;;18.77;58.94;96470.63;4233849;28;5606;-77
2023/05/21 07:46:51;;;;;;;;;;;;;;;18.78;58.96;96464.19;4235266;28;5659;-74
2023/05/21 07:48:54;;;;;;;;;;;;;;;18.81;59.02;96463.72;4234804;28;5743;-76
2023/05/21 07:50:58;;;;;;;;;;;;;;;18.83;58.92;96458.91;4234962;28;5833;-74
2023/05/21 07:53:01;;;;;;;;;;;;;;;18.86;58.87;96463.75;4234839;28;5837;-72
2023/05/21 07:55:06;;;;;;;;;;;;;;;18.87;58.77;96451.97;4234855;28;5663;-78
2023/05/21 07:57:09;;;;;;;;;;;;;;;18.87;58.64;96454.66;4234802;28;5640;-73
2023/05/21 07:59:14;;;;;;;;;;;;;;;18.90;58.77;96462.97;4234786;28;5652;-76
2023/05/21 08:01:17;;;;;;;;;;;;;;;18.90;58.90;96467.53;4216936;28;5609;-76
2023/05/21 08:03:20;;;;;;;;;;;;;;;18.88;58.81;96450.91;4234878;28;5708;-73
2023/05/21 08:05:24;;;;;;;;;;;;;;;18.87;58.53;96466.16;4234896;28;5783;-73
2023/05/21 08:07:28;;;;;;;;;;;;;;;18.87;58.50;96463.50;4234712;28;5648;-73
2023/05/21 08:09:31;;;;;;;;;;;;;;;18.90;58.46;96464.84;4233306;28;5164;-72
2023/05/21 08:11:34;;;;;;;;;;;;;;;18.91;58.32;96461.09;4234859;27;5663;-74
2023/05/21 08:13:37;;;;;;;;;;;;;;;18.89;58.53;96463.25;4234677;28;5734;-75
2023/05/21 08:15:41;;;;;;;;;;;;;;;18.88;58.32;96466.97;4234443;28;5644;-74
2023/05/21 08:17:44;;;;;;;;;;;;;;;18.92;58.47;96468.09;4234675;28;5672;-72
2023/05/21 08:19:47;;;;;;;;;;;;;;;18.93;58.57;96468.91;4234494;28;6370;-73
2023/05/21 08:21:50;;;;;;;;;;;;;;;18.95;58.49;96464.91;4234608;28;5648;-73
2023/05/21 08:23:55;;;;;;;;;;;;;;;18.99;57.97;96474.03;4234587;28;5746;-73
2023/05/21 08:25:57;;;;;;;;;;;;;;;19.03;58.15;96466.34;4234636;28;5663;-75
2023/05/21 08:28:00;;;;;;;;;;;;;;;19.04;58.03;96471.44;4234490;28;5659;-73
2023/05/21 08:30:04;;;;;;;;;;;;;;;19.05;57.99;96467.69;4234401;28;5739;-73
2023/05/21 08:32:09;;;;;;;;;;;;;;;19.05;58.01;96473.03;4234150;28;5092;-73
2023/05/21 08:34:12;;;;;;;;;;;;;;;19.05;57.71;96473.03;4234487;28;5660;-73
2023/05/21 08:36:15;;;;;;;;;;;;;;;19.02;58.04;96468.19;4234597;28;6321;-73
2023/05/21 08:38:18;;;;;;;;;;;;;;;19.05;58.05;96472.25;4234684;27;5727;-75
2023/05/21 08:40:20;;;;;;;;;;;;;;;19.07;57.92;96470.91;4234250;28;5636;-72
2023/05/21 08:42:33;;;;;;;;;;;;;;;19.06;57.75;96458.59;4234332;28;5757;-72
2023/05/21 08:44:45;;;;;;;;;;;;;;;19.10;58.06;96459.69;4234481;28;5727;-73
2023/05/21 08:46:50;;;;;;;;;;;;;;;19.12;57.56;96462.09;4234497;28;5655;-73
2023/05/21 08:48:55;;;;;;;;;;;;;;;19.11;57.68;96461.28;4234455;28;5754;-72
2023/05/21 08:51:00;;;;;;;;;;;;;;;19.12;57.49;96472.81;4234401;28;5730;-72
2023/05/21 08:53:03;;;;;;;;;;;;;;;19.11;57.73;96468.53;4234333;28;5723;-71
2023/05/21 08:55:25;;;;;;;;;;;;;;;19.09;57.78;96463.44;4234172;28;5640;-71
2023/05/21 08:57:30;;;;;;;;;;;;;;;19.09;57.77;96458.06;4234431;28;5640;-72
2023/05/21 08:59:35;;;;;;;;;;;;;;;19.10;57.52;96470.41;4234311;28;5866;-71
2023/05/21 09:01:41;;;;;;;;;;;;;;;19.10;57.53;96465.03;4234064;28;5647;-71
2023/05/21 09:03:44;;;;;;;;;;;;;;;19.12;57.26;96462.91;4234261;28;5822;-71
2023/05/21 09:05:50;;;;;;;;;;;;;;;19.12;57.55;96462.09;4234412;28;5639;-71
2023/05/21 09:08:00;;;;;;;;;;;;;;;19.10;57.40;96457.00;4234169;28;5774;-72
2023/05/21 09:10:07;;;;;;;;;;;;;;;19.11;57.14;96466.66;4234170;28;5746;-75
2023/05/21 09:12:10;;;;;;;;;;;;;;;19.12;57.26;96465.59;4233818;27;5657;-72
2023/05/21 09:14:15;;;;;;;;;;;;;;;19.12;57.24;96470.94;4232550;28;6359;-73
2023/05/21 09:16:18;;;;;;;;;;;;;;;19.15;57.25;96472.34;4234050;28;5655;-73
2023/05/21 09:18:20;;;;;;;;;;;;;;;19.15;57.09;96470.47;4234100;28;5632;-72
2023/05/21 09:20:25;;;;;;;;;;;;;;;19.17;56.93;96472.88;4234186;28;5647;-73
2023/05/21 09:22:29;;;;;;;;;;;;;;;19.20;57.27;96467.00;4233954;28;5746;-72
2023/05/21 09:24:33;;;;;;;;;;;;;;;19.20;57.27;96459.78;4234091;28;5632;-72
2023/05/21 09:26:40;;;;;;;;;;;;;;;19.23;57.12;96465.69;4235449;28;5636;-73
2023/05/21 09:28:43;;;;;;;;;;;;;;;19.25;57.28;96468.91;4237557;28;5726;-72
2023/05/21 09:30:47;;;;;;;;;;;;;;;19.25;56.86;96472.38;4237087;28;5648;-72
2023/05/21 09:32:53;;;;;;;;;;;;;;;19.28;57.09;96474.56;4237084;28;5675;-72
2023/05/21 09:34:56;;;;;;;;;;;;;;;19.31;57.04;96467.91;4237430;28;5656;-73
2023/05/21 09:37:00;;;;;;;;;;;;;;;19.30;57.13;96467.09;4237024;28;5676;-73
2023/05/21 09:39:04;;;;;;;;;;;;;;;19.32;56.95;96464.16;4236996;28;5714;-71
2023/05/21 09:41:07;;;;;;;;;;;;;;;19.30;56.96;96474.31;4237025;28;5663;-73
2023/05/21 09:43:14;;;;;;;;;;;;;;;19.25;57.03;96461.66;4237208;28;5651;-72
2023/05/21 09:45:21;;;;;;;;;;;;;;;19.27;56.67;96464.94;4237097;28;5779;-71
2023/05/21 09:47:24;;;;;;;;;;;;;;;19.27;56.90;96469.47;4237277;28;5643;-71
2023/05/21 09:49:27;;;;;;;;;;;;;;;19.25;56.89;96475.06;4237000;28;5816;-72
2023/05/21 09:51:30;;;;;;;;;;;;;;;19.27;56.88;96464.94;4236964;27;7765;-72
2023/05/21 09:53:33;;;;;;;;;;;;;;;19.30;56.82;96469.75;4237085;28;5750;-71
2023/05/21 09:55:37;;;;;;;;;;;;;;;19.31;56.87;96482.09;4236724;28;5853;-71
2023/05/21 09:57:42;;;;;;;;;;;;;;;19.30;56.75;96468.97;4236753;28;5772;-72
2023/05/21 09:59:45;;;;;;;;;;;;;;;19.33;56.98;96469.25;4236332;28;5083;-73
2023/05/21 10:01:51;;;;;;;;;;;;;;;19.34;56.63;96475.41;4236528;28;5651;-73
2023/05/21 10:03:56;;;;;;;;;;;;;;;19.33;56.82;96482.66;4235513;28;5704;-72
2023/05/21 10:06:00;;;;;;;;;;;;;;;19.36;56.85;96475.97;4237003;28;5636;-73
2023/05/21 10:08:04;;;;;;;;;;;;;;;19.36;56.89;96473.28;4236676;28;5781;-73
2023/05/21 10:10:13;;;;;;;;;;;;;;;19.35;56.77;96467.13;4236522;28;5643;-73
2023/05/21 10:12:18;;;;;;;;;;;;;;;19.35;56.85;96482.38;4236437;28;5730;-74
2023/05/21 10:14:24;;;;;;;;;;;;;;;19.35;56.77;96483.19;4236545;28;6342;-73
2023/05/21 10:16:30;;;;;;;;;;;;;;;19.34;56.37;96476.22;4236383;28;5668;-74
2023/05/21 10:18:33;;;;;;;;;;;;;;;19.32;56.63;96472.19;4236118;28;5850;-73
2023/05/21 10:20:37;;;;;;;;;;;;;;;19.32;56.72;96466.81;4236337;28;5874;-72
2023/05/21 10:22:41;;;;;;;;;;;;;;;19.32;56.53;96462.28;4236468;28;5839;-72
2023/05/21 10:24:45;;;;;;;;;;;;;;;19.34;56.51;96472.72;4236185;28;5738;-74
2023/05/21 10:26:48;;;;;;;;;;;;;;;19.35;56.69;96466.31;4236426;28;5655;-72
2023/05/21 10:28:56;;;;;;;;;;;;;;;19.34;56.31;96473.53;4236354;28;5722;-74
2023/05/21 10:30:59;;;;;;;;;;;;;;;19.33;56.16;96471.13;4236415;28;5742;-73
2023/05/21 10:33:04;;;;;;;;;;;;;;;19.30;56.56;96464.41;4235151;28;5606;-72
2023/05/21 10:35:09;;;;;;;;;;;;;;;19.28;56.21;96466.53;4236298;28;5647;-73
2023/05/21 10:37:13;;;;;;;;;;;;;;;19.27;56.56;96464.94;4235752;28;5655;-72
2023/05/21 10:39:19;;;;;;;;;;;;;;;19.26;56.40;96468.66;4235000;28;5656;-72
2023/05/21 10:41:23;;;;;;;;;;;;;;;19.30;56.42;96464.41;4236193;28;5628;-72
2023/05/21 10:43:50;;;;;;;;;;;;;;;19.33;56.33;96463.09;4236139;28;5640;-72
2023/05/21 10:46:43;;;;;;;;;;;;;;;19.37;56.41;96466.88;4236145;28;5668;-72
2023/05/21 10:49:24;;;;;;;;;;;;;;;19.39;55.95;96456.72;4219253;28;5609;-73
2023/05/21 10:51:30;;;;;;;;;;;;;;;19.38;56.20;96463.13;4229393;28;5635;-72
2023/05/21 10:53:46;;;;;;;;;;;;;;;19.39;56.17;96470.09;4235981;28;5649;-74
2023/05/21 10:56:05;;;;;;;;;;;;;;;19.37;55.98;96450.81;4235526;28;5760;-74